PWSweather.com
Personal Weather Stations
Station Observations
KNYSYRAC2
Fairmount Hills, Fairmount, NY 13219

Fairmount HillsFairmount, NY 13219

Lat: 43.03602, Lon: -76.247151

Elevation: 663

Station Type: Ambient Weather WS-2080

http://weather.cerchia.com

High Low Average
Temperature 75.5°F24.2°F 54.8°F12.7°F 61.7°F16.5°F
Dew Point 59.2°F15.1°F 29.9°F-1.2°F 46.7°F8.2°F
Winds 6.4 mph WSW10.3 mph WSW Calm Calm 2.7 mph 4.3 mph
Wind Gusts 17.1 mph27.5 mph -- 7.9 mph12.7 mph
Humidity 99% 22% 63%
Pressure 29.96 in1014.60 in 29.83 in1010.20 in -
Precipitation 0.04 in1.00 in - -
Hour Temp Dew Point Humidity Winds Wind Gusts Pressure Precip Precip Rate Daily Precip Total
12:00 AM 59.8°F15.4°C 58.1°F14.5°C 94% 3.2 mph S5.1 kmh S 9.5 mph15.3 kmh 29.88 in1011.9 mb 0.00 in0.0 mm 0.00 in0.0 mm 0.00 in0.0 mm
12:15 AM 59.6°F15.3°C 58.8°F14.9°C 97% 1.7 mph S2.7 kmh S 8.7 mph14.0 kmh 29.88 in1011.9 mb 0.01 in0.3 mm 0.04 in1.0 mm 0.01 in0.3 mm
12:30 AM 59.4°F15.2°C 58.9°F14.9°C 98% 2.9 mph SW4.7 kmh SW 6.7 mph10.8 kmh 29.90 in1012.5 mb 0.01 in0.3 mm 0.00 in0.0 mm 0.01 in0.3 mm
12:45 AM 59.4°F15.2°C 59.2°F15.1°C 99% 2.8 mph SSW4.5 kmh SSW 9.5 mph15.3 kmh 29.89 in1012.2 mb 0.01 in0.3 mm 0.00 in0.0 mm 0.01 in0.3 mm
01:00 AM 59.6°F15.3°C 59.1°F15.1°C 98% 3.8 mph SW6.1 kmh SW 10.3 mph16.6 kmh 29.89 in1012.2 mb 0.01 in0.3 mm 0.00 in0.0 mm 0.01 in0.3 mm
01:15 AM 59.6°F15.3°C 57.9°F14.4°C 94% 5.0 mph WSW8.0 kmh WSW 12.3 mph19.8 kmh 29.89 in1012.2 mb 0.00 in0.0 mm 0.00 in0.0 mm 0.01 in0.3 mm
01:30 AM 59.6°F15.3°C 55.7°F13.2°C 87% 4.8 mph WSW7.7 kmh WSW 12.3 mph19.8 kmh 29.90 in1012.5 mb 0.00 in0.0 mm 0.00 in0.0 mm 0.01 in0.3 mm
01:45 AM 59.1°F15.1°C 54.2°F12.3°C 84% 3.9 mph SW6.3 kmh SW 8.7 mph14.0 kmh 29.90 in1012.5 mb 0.00 in0.0 mm 0.00 in0.0 mm 0.01 in0.3 mm
02:00 AM 58.5°F14.7°C 52.7°F11.5°C 81% 2.9 mph WSW4.7 kmh WSW 7.5 mph12.1 kmh 29.89 in1012.2 mb 0.00 in0.0 mm 0.00 in0.0 mm 0.01 in0.3 mm
02:15 AM 58.2°F14.6°C 51.4°F10.8°C 78% 2.9 mph SW4.7 kmh SW 7.5 mph12.1 kmh 29.90 in1012.5 mb 0.00 in0.0 mm 0.00 in0.0 mm 0.01 in0.3 mm
02:30 AM 58.0°F14.4°C 50.8°F10.4°C 77% 3.2 mph WSW5.1 kmh WSW 9.5 mph15.3 kmh 29.89 in1012.2 mb 0.00 in0.0 mm 0.00 in0.0 mm 0.01 in0.3 mm
02:45 AM 57.5°F14.2°C 51.0°F10.6°C 79% 1.2 mph WNW1.9 kmh WNW 5.6 mph9.0 kmh 29.89 in1012.2 mb 0.00 in0.0 mm 0.00 in0.0 mm 0.01 in0.3 mm
03:00 AM 56.7°F13.7°C 50.3°F10.2°C 79% 0.8 mph W1.3 kmh W 3.9 mph6.3 kmh 29.89 in1012.2 mb 0.00 in0.0 mm 0.00 in0.0 mm 0.01 in0.3 mm
03:15 AM 56.4°F13.6°C 49.9°F9.9°C 79% 2.0 mph WSW3.2 kmh WSW 6.7 mph10.8 kmh 29.89 in1012.2 mb 0.00 in0.0 mm 0.00 in0.0 mm 0.01 in0.3 mm
03:30 AM 57.3°F14.1°C 50.5°F10.3°C 78% 2.2 mph SSW3.5 kmh SSW 8.7 mph14.0 kmh 29.88 in1011.9 mb 0.00 in0.0 mm 0.00 in0.0 mm 0.01 in0.3 mm
03:45 AM 56.7°F13.7°C 50.3°F10.2°C 79% 2.5 mph S4.0 kmh S 8.7 mph14.0 kmh 29.88 in1011.9 mb 0.00 in0.0 mm 0.00 in0.0 mm 0.01 in0.3 mm
04:00 AM 57.1°F13.9°C 50.6°F10.3°C 79% 2.8 mph SSE4.5 kmh SSE 8.7 mph14.0 kmh 29.88 in1011.9 mb 0.00 in0.0 mm 0.00 in0.0 mm 0.01 in0.3 mm
04:15 AM 56.2°F13.4°C 51.1°F10.6°C 83% 1.8 mph SSE2.9 kmh SSE 6.7 mph10.8 kmh 29.88 in1011.9 mb 0.00 in0.0 mm 0.00 in0.0 mm 0.01 in0.3 mm
04:30 AM 56.4°F13.6°C 51.9°F11.1°C 85% 2.1 mph SSE3.4 kmh SSE 11.5 mph18.5 kmh 29.89 in1012.2 mb 0.00 in0.0 mm 0.00 in0.0 mm 0.01 in0.3 mm
04:45 AM 56.7°F13.7°C 52.3°F11.3°C 85% 2.4 mph SE3.9 kmh SE 7.5 mph12.1 kmh 29.89 in1012.2 mb 0.00 in0.0 mm 0.00 in0.0 mm 0.01 in0.3 mm
05:00 AM 56.4°F13.6°C 52.2°F11.2°C 86% 1.8 mph SSE2.9 kmh SSE 9.5 mph15.3 kmh 29.88 in1011.9 mb 0.00 in0.0 mm 0.00 in0.0 mm 0.01 in0.3 mm
05:15 AM 56.0°F13.3°C 53.1°F11.7°C 90% 1.6 mph SSE2.6 kmh SSE 4.8 mph7.7 kmh 29.88 in1011.9 mb 0.00 in0.0 mm 0.00 in0.0 mm 0.01 in0.3 mm
05:30 AM 55.8°F13.2°C 53.6°F12.0°C 92% 2.2 mph SE3.5 kmh SE 3.9 mph6.3 kmh 29.88 in1011.9 mb 0.00 in0.0 mm 0.00 in0.0 mm 0.01 in0.3 mm
05:45 AM 55.5°F13.1°C 53.5°F11.9°C 93% 2.5 mph SE4.0 kmh SE 4.8 mph7.7 kmh 29.88 in1011.9 mb 0.00 in0.0 mm 0.00 in0.0 mm 0.01 in0.3 mm
06:00 AM 55.5°F13.1°C 54.4°F12.4°C 96% 2.3 mph SE3.7 kmh SE 4.8 mph7.7 kmh 29.88 in1011.9 mb 0.00 in0.0 mm 0.00 in0.0 mm 0.01 in0.3 mm
06:15 AM 55.8°F13.2°C 54.7°F12.6°C 96% 2.2 mph SSE3.5 kmh SSE 5.6 mph9.0 kmh 29.88 in1011.9 mb 0.00 in0.0 mm 0.00 in0.0 mm 0.01 in0.3 mm
06:30 AM 56.0°F13.3°C 54.3°F12.4°C 94% 2.2 mph SE3.5 kmh SE 4.8 mph7.7 kmh 29.89 in1012.2 mb 0.00 in0.0 mm 0.00 in0.0 mm 0.01 in0.3 mm
06:45 AM 55.7°F13.2°C 54.0°F12.2°C 94% 2.4 mph SSE3.9 kmh SSE 4.8 mph7.7 kmh 29.88 in1011.9 mb 0.00 in0.0 mm 0.00 in0.0 mm 0.01 in0.3 mm
07:00 AM 55.5°F13.1°C 53.5°F11.9°C 93% 1.4 mph SSE2.3 kmh SSE 2.8 mph4.5 kmh 29.88 in1011.9 mb 0.00 in0.0 mm 0.00 in0.0 mm 0.01 in0.3 mm
07:15 AM 55.1°F12.8°C 53.1°F11.7°C 93% 1.4 mph S2.3 kmh S 5.6 mph9.0 kmh 29.89 in1012.2 mb 0.00 in0.0 mm 0.00 in0.0 mm 0.01 in0.3 mm
07:30 AM 55.1°F12.8°C 53.1°F11.7°C 93% 1.4 mph S2.3 kmh S 5.6 mph9.0 kmh 29.89 in1012.2 mb 0.00 in0.0 mm 0.00 in0.0 mm 0.01 in0.3 mm
07:45 AM 55.7°F13.2°C 53.7°F12.1°C 93% 2.5 mph SSE4.0 kmh SSE 8.7 mph14.0 kmh 29.89 in1012.2 mb 0.00 in0.0 mm 0.00 in0.0 mm 0.01 in0.3 mm
08:00 AM 56.2°F13.4°C 53.3°F11.8°C 90% 2.4 mph SE3.9 kmh SE 8.7 mph14.0 kmh 29.89 in1012.2 mb 0.00 in0.0 mm 0.00 in0.0 mm 0.01 in0.3 mm
08:15 AM 56.7°F13.7°C 52.9°F11.6°C 87% 2.2 mph SSE3.5 kmh SSE 6.7 mph10.8 kmh 29.88 in1011.9 mb 0.00 in0.0 mm 0.00 in0.0 mm 0.01 in0.3 mm
08:30 AM 57.5°F14.2°C 53.3°F11.8°C 86% 1.9 mph S3.1 kmh S 7.5 mph12.1 kmh 29.89 in1012.2 mb 0.00 in0.0 mm 0.00 in0.0 mm 0.01 in0.3 mm
08:45 AM 58.2°F14.6°C 53.4°F11.9°C 84% 2.4 mph S3.9 kmh S 8.7 mph14.0 kmh 29.89 in1012.2 mb 0.00 in0.0 mm 0.00 in0.0 mm 0.01 in0.3 mm
09:00 AM 59.1°F15.1°C 53.6°F12.0°C 82% 2.4 mph SSW3.9 kmh SSW 6.7 mph10.8 kmh 29.89 in1012.2 mb 0.00 in0.0 mm 0.00 in0.0 mm 0.01 in0.3 mm
09:15 AM 59.8°F15.4°C 52.6°F11.4°C 77% 4.7 mph SW7.6 kmh SW 13.4 mph21.6 kmh 29.89 in1012.2 mb 0.00 in0.0 mm 0.00 in0.0 mm 0.01 in0.3 mm
09:30 AM 60.5°F15.8°C 52.6°F11.4°C 75% 4.4 mph WSW7.1 kmh WSW 10.3 mph16.6 kmh 29.89 in1012.2 mb 0.00 in0.0 mm 0.00 in0.0 mm 0.01 in0.3 mm
09:45 AM 60.9°F16.1°C 51.4°F10.8°C 71% 5.2 mph SSW8.4 kmh SSW 14.3 mph23.0 kmh 29.89 in1012.2 mb 0.00 in0.0 mm 0.00 in0.0 mm 0.01 in0.3 mm
10:00 AM 61.2°F16.2°C 51.4°F10.8°C 70% 5.1 mph SW8.2 kmh SW 15.1 mph24.3 kmh 29.89 in1012.2 mb 0.00 in0.0 mm 0.00 in0.0 mm 0.01 in0.3 mm
10:15 AM 61.6°F16.4°C 50.1°F10.1°C 66% 4.7 mph SSW7.6 kmh SSW 11.5 mph18.5 kmh 29.89 in1012.2 mb 0.00 in0.0 mm 0.00 in0.0 mm 0.01 in0.3 mm
10:30 AM 61.6°F16.4°C 49.7°F9.8°C 65% 4.4 mph SW7.1 kmh SW 17.1 mph27.5 kmh 29.89 in1012.2 mb 0.00 in0.0 mm 0.00 in0.0 mm 0.01 in0.3 mm
10:45 AM 62.7°F17.1°C 50.3°F10.2°C 64% 5.0 mph WSW8.0 kmh WSW 11.5 mph18.5 kmh 29.88 in1011.9 mb 0.00 in0.0 mm 0.00 in0.0 mm 0.01 in0.3 mm
11:00 AM 63.6°F17.6°C 49.9°F9.9°C 61% 4.6 mph WSW7.4 kmh WSW 11.5 mph18.5 kmh 29.89 in1012.2 mb 0.00 in0.0 mm 0.00 in0.0 mm 0.01 in0.3 mm
11:15 AM 63.2°F17.3°C 50.0°F10.0°C 62% 4.5 mph SW7.2 kmh SW 10.3 mph16.6 kmh 29.88 in1011.9 mb 0.00 in0.0 mm 0.00 in0.0 mm 0.01 in0.3 mm
11:30 AM 63.8°F17.7°C 48.7°F9.3°C 58% 4.4 mph WSW7.1 kmh WSW 12.3 mph19.8 kmh 29.88 in1011.9 mb 0.00 in0.0 mm 0.00 in0.0 mm 0.01 in0.3 mm
11:45 AM 64.3°F17.9°C 47.3°F8.5°C 54% 5.1 mph SW8.2 kmh SW 15.1 mph24.3 kmh 29.87 in1011.5 mb 0.00 in0.0 mm 0.00 in0.0 mm 0.01 in0.3 mm
12:00 PM 64.7°F18.2°C 46.1°F7.8°C 51% 5.1 mph SW8.2 kmh SW 14.3 mph23.0 kmh 29.88 in1011.9 mb 0.00 in0.0 mm 0.00 in0.0 mm 0.01 in0.3 mm
12:15 PM 65.4°F18.6°C 45.2°F7.3°C 48% 4.5 mph SW7.2 kmh SW 11.5 mph18.5 kmh 29.87 in1011.5 mb 0.00 in0.0 mm 0.00 in0.0 mm 0.01 in0.3 mm
12:30 PM 65.7°F18.7°C 43.8°F6.6°C 45% 5.0 mph WSW8.0 kmh WSW 11.5 mph18.5 kmh 29.86 in1011.2 mb 0.00 in0.0 mm 0.00 in0.0 mm 0.01 in0.3 mm
12:45 PM 66.5°F19.2°C 45.0°F7.2°C 46% 4.2 mph WSW6.8 kmh WSW 10.3 mph16.6 kmh 29.86 in1011.2 mb 0.00 in0.0 mm 0.00 in0.0 mm 0.01 in0.3 mm
01:00 PM 67.4°F19.7°C 43.5°F6.4°C 42% 3.3 mph W5.3 kmh W 13.4 mph21.6 kmh 29.85 in1010.8 mb 0.00 in0.0 mm 0.00 in0.0 mm 0.01 in0.3 mm
01:15 PM 67.7°F19.8°C 41.9°F5.5°C 39% 3.1 mph W5.0 kmh W 9.5 mph15.3 kmh 29.85 in1010.8 mb 0.00 in0.0 mm 0.00 in0.0 mm 0.01 in0.3 mm
01:30 PM 68.1°F20.1°C 39.4°F4.1°C 35% 5.3 mph WSW8.5 kmh WSW 15.1 mph24.3 kmh 29.84 in1010.5 mb 0.00 in0.0 mm 0.00 in0.0 mm 0.01 in0.3 mm
01:45 PM 68.8°F20.4°C 40.0°F4.4°C 35% 6.4 mph WSW10.3 kmh WSW 17.1 mph27.5 kmh 29.84 in1010.5 mb 0.00 in0.0 mm 0.00 in0.0 mm 0.01 in0.3 mm
02:00 PM 70.4°F21.3°C 40.7°F4.8°C 34% 4.4 mph WSW7.1 kmh WSW 13.4 mph21.6 kmh 29.84 in1010.5 mb 0.00 in0.0 mm 0.00 in0.0 mm 0.01 in0.3 mm
02:15 PM 73.1°F22.8°C 43.1°F6.2°C 34% 4.6 mph SW7.4 kmh SW 14.3 mph23.0 kmh 29.84 in1010.5 mb 0.00 in0.0 mm 0.00 in0.0 mm 0.01 in0.3 mm
02:30 PM 74.2°F23.4°C 40.8°F4.9°C 30% 4.4 mph SW7.1 kmh SW 12.3 mph19.8 kmh 29.83 in1010.2 mb 0.00 in0.0 mm 0.00 in0.0 mm 0.01 in0.3 mm
02:45 PM 74.6°F23.7°C 37.4°F3.0°C 26% 5.0 mph WSW8.0 kmh WSW 14.3 mph23.0 kmh 29.83 in1010.2 mb 0.00 in0.0 mm 0.00 in0.0 mm 0.01 in0.3 mm
03:00 PM 75.3°F24.1°C 38.0°F3.3°C 26% 2.7 mph W4.3 kmh W 7.5 mph12.1 kmh 29.83 in1010.2 mb 0.00 in0.0 mm 0.00 in0.0 mm 0.01 in0.3 mm
03:15 PM 75.3°F24.1°C 37.0°F2.8°C 25% 4.5 mph WNW7.2 kmh WNW 12.3 mph19.8 kmh 29.83 in1010.2 mb 0.00 in0.0 mm 0.00 in0.0 mm 0.01 in0.3 mm
03:30 PM 75.5°F24.2°C 36.1°F2.3°C 24% 4.6 mph WSW7.4 kmh WSW 11.5 mph18.5 kmh 29.83 in1010.2 mb 0.00 in0.0 mm 0.00 in0.0 mm 0.01 in0.3 mm
03:45 PM 74.9°F23.8°C 34.6°F1.4°C 23% 6.0 mph SW9.7 kmh SW 13.4 mph21.6 kmh 29.83 in1010.2 mb 0.00 in0.0 mm 0.00 in0.0 mm 0.01 in0.3 mm
04:00 PM 74.7°F23.7°C 34.5°F1.4°C 23% 4.2 mph WSW6.8 kmh WSW 11.5 mph18.5 kmh 29.84 in1010.5 mb 0.00 in0.0 mm 0.00 in0.0 mm 0.01 in0.3 mm
04:15 PM 74.6°F23.7°C 33.2°F0.7°C 22% 6.1 mph W9.8 kmh W 14.3 mph23.0 kmh 29.84 in1010.5 mb 0.00 in0.0 mm 0.00 in0.0 mm 0.01 in0.3 mm
04:30 PM 74.2°F23.4°C 34.0°F1.1°C 23% 5.3 mph SW8.5 kmh SW 11.5 mph18.5 kmh 29.84 in1010.5 mb 0.00 in0.0 mm 0.00 in0.0 mm 0.01 in0.3 mm
04:45 PM 73.8°F23.2°C 33.7°F0.9°C 23% 4.3 mph WSW6.9 kmh WSW 10.3 mph16.6 kmh 29.84 in1010.5 mb 0.00 in0.0 mm 0.00 in0.0 mm 0.01 in0.3 mm
05:00 PM 73.7°F23.2°C 34.6°F1.4°C 24% 3.7 mph NW6.0 kmh NW 9.5 mph15.3 kmh 29.84 in1010.5 mb 0.00 in0.0 mm 0.00 in0.0 mm 0.01 in0.3 mm
05:15 PM 73.1°F22.8°C 33.1°F0.6°C 23% 3.0 mph W4.8 kmh W 9.5 mph15.3 kmh 29.84 in1010.5 mb 0.00 in0.0 mm 0.00 in0.0 mm 0.01 in0.3 mm
05:30 PM 72.6°F22.6°C 33.7°F0.9°C 24% 2.7 mph WNW4.3 kmh WNW 10.3 mph16.6 kmh 29.85 in1010.8 mb 0.00 in0.0 mm 0.00 in0.0 mm 0.01 in0.3 mm
05:45 PM 70.6°F21.4°C 29.9°F-1.2°C 22% 2.0 mph NW3.2 kmh NW 7.5 mph12.1 kmh 29.85 in1010.8 mb 0.00 in0.0 mm 0.00 in0.0 mm 0.01 in0.3 mm
06:00 PM 68.8°F20.4°C 36.1°F2.3°C 30% 0.8 mph SW1.3 kmh SW 2.8 mph4.5 kmh 29.86 in1011.2 mb 0.00 in0.0 mm 0.00 in0.0 mm 0.01 in0.3 mm
06:15 PM 67.7°F19.8°C 38.3°F3.5°C 34% 0.5 mph S0.8 kmh S 2.8 mph4.5 kmh 29.86 in1011.2 mb 0.00 in0.0 mm 0.00 in0.0 mm 0.01 in0.3 mm
06:30 PM 65.4°F18.6°C 39.8°F4.3°C 39% Calm Calm 2.0 mph3.2 kmh 29.86 in1011.2 mb 0.00 in0.0 mm 0.00 in0.0 mm 0.01 in0.3 mm
06:45 PM 62.7°F17.1°C 42.1°F5.6°C 47% 0.1 mph SE0.2 kmh SE 2.0 mph3.2 kmh 29.87 in1011.5 mb 0.00 in0.0 mm 0.00 in0.0 mm 0.01 in0.3 mm
07:00 PM 61.2°F16.2°C 43.0°F6.1°C 51% 0.8 mph SE1.3 kmh SE 2.0 mph3.2 kmh 29.87 in1011.5 mb 0.00 in0.0 mm 0.00 in0.0 mm 0.01 in0.3 mm
07:15 PM 59.6°F15.3°C 42.9°F6.1°C 54% 0.8 mph SE1.3 kmh SE 2.0 mph3.2 kmh 29.88 in1011.9 mb 0.00 in0.0 mm 0.00 in0.0 mm 0.01 in0.3 mm
07:30 PM 58.7°F14.8°C 43.5°F6.4°C 57% 0.8 mph SE1.3 kmh SE 2.0 mph3.2 kmh 29.89 in1012.2 mb 0.00 in0.0 mm 0.00 in0.0 mm 0.01 in0.3 mm
07:45 PM 57.8°F14.3°C 44.5°F6.9°C 61% 1.5 mph SE2.4 kmh SE 2.8 mph4.5 kmh 29.89 in1012.2 mb 0.00 in0.0 mm 0.00 in0.0 mm 0.01 in0.3 mm
08:00 PM 57.1°F13.9°C 43.8°F6.6°C 61% 1.1 mph SE1.8 kmh SE 2.0 mph3.2 kmh 29.90 in1012.5 mb 0.00 in0.0 mm 0.00 in0.0 mm 0.01 in0.3 mm
08:15 PM 56.9°F13.8°C 44.4°F6.9°C 63% 1.1 mph SE1.8 kmh SE 2.8 mph4.5 kmh 29.90 in1012.5 mb 0.00 in0.0 mm 0.00 in0.0 mm 0.01 in0.3 mm
08:30 PM 56.0°F13.3°C 44.4°F6.9°C 65% 0.4 mph SE0.6 kmh SE 2.0 mph3.2 kmh 29.91 in1012.9 mb 0.00 in0.0 mm 0.00 in0.0 mm 0.01 in0.3 mm
08:45 PM 54.8°F12.7°C 44.0°F6.7°C 67% Calm Calm -- 29.92 in1013.2 mb 0.00 in0.0 mm 0.00 in0.0 mm 0.01 in0.3 mm
09:00 PM 55.1°F12.8°C 42.7°F5.9°C 63% 0.8 mph SE1.3 kmh SE 2.8 mph4.5 kmh 29.92 in1013.2 mb 0.00 in0.0 mm 0.00 in0.0 mm 0.01 in0.3 mm
09:15 PM 55.5°F13.1°C 43.9°F6.6°C 65% 0.9 mph SE1.4 kmh SE 2.8 mph4.5 kmh 29.92 in1013.2 mb 0.00 in0.0 mm 0.00 in0.0 mm 0.01 in0.3 mm
09:30 PM 55.5°F13.1°C 44.3°F6.8°C 66% 0.8 mph E1.3 kmh E 2.8 mph4.5 kmh 29.92 in1013.2 mb 0.00 in0.0 mm 0.00 in0.0 mm 0.01 in0.3 mm
09:45 PM 56.2°F13.4°C 44.6°F7.0°C 65% 0.7 mph ESE1.1 kmh ESE 2.8 mph4.5 kmh 29.93 in1013.5 mb 0.00 in0.0 mm 0.00 in0.0 mm 0.01 in0.3 mm
10:00 PM 56.4°F13.6°C 44.8°F7.1°C 65% 0.3 mph SE0.5 kmh SE 2.8 mph4.5 kmh 29.93 in1013.5 mb 0.00 in0.0 mm 0.00 in0.0 mm 0.01 in0.3 mm
10:15 PM 56.4°F13.6°C 44.8°F7.1°C 65% 0.2 mph SE0.3 kmh SE 2.0 mph3.2 kmh 29.93 in1013.5 mb 0.00 in0.0 mm 0.00 in0.0 mm 0.01 in0.3 mm
10:30 PM 57.5°F14.2°C 43.7°F6.5°C 60% 0.3 mph SE0.5 kmh SE 2.0 mph3.2 kmh 29.94 in1013.9 mb 0.00 in0.0 mm 0.00 in0.0 mm 0.01 in0.3 mm
10:45 PM 57.5°F14.2°C 43.7°F6.5°C 60% 0.1 mph SE0.2 kmh SE 2.8 mph4.5 kmh 29.94 in1013.9 mb 0.00 in0.0 mm 0.00 in0.0 mm 0.01 in0.3 mm
11:00 PM 57.5°F14.2°C 42.8°F6.0°C 58% 0.3 mph SE0.5 kmh SE 2.8 mph4.5 kmh 29.94 in1013.9 mb 0.00 in0.0 mm 0.00 in0.0 mm 0.01 in0.3 mm
11:15 PM 57.5°F14.2°C 41.9°F5.5°C 56% 1.1 mph SE1.8 kmh SE 2.8 mph4.5 kmh 29.95 in1014.2 mb 0.00 in0.0 mm 0.00 in0.0 mm 0.01 in0.3 mm
11:30 PM 58.4°F14.7°C 41.8°F5.4°C 54% 1.1 mph SE1.8 kmh SE 2.8 mph4.5 kmh 29.95 in1014.2 mb 0.00 in0.0 mm 0.00 in0.0 mm 0.01 in0.3 mm
11:45 PM 58.9°F14.9°C 41.3°F5.2°C 52% 1.8 mph SSE2.9 kmh SSE 3.9 mph6.3 kmh 29.96 in1014.6 mb 0.00 in0.0 mm 0.00 in0.0 mm 0.01 in0.3 mm